Time;durP1;ratioP1;P1;durP2;ratioP2;P2;SDS_P1;SDS_P2;PMS_P1;PMS_P2;Temp;Humidity;BMP_temperature;BMP_pressure;BME280_temperature;BME280_humidity;BME280_pressure;Samples;Min_cycle;Max_cycle;Signal;HPM_P1;HPM_P2
2023/08/04 00:01:25;;;;;;;6.90;1.50;;;;;;;23.33;40.51;98297.53;5135537;27;20023;-46
2023/08/04 00:03:54;;;;;;;2.78;1.00;;;;;;;23.32;39.70;98295.13;5135603;27;20054;-46
2023/08/04 00:06:19;;;;;;;6.10;0.85;;;;;;;22.95;40.24;98294.09;5134188;27;20046;-46
2023/08/04 00:08:45;;;;;;;2.22;0.65;;;;;;;22.51;41.24;98301.38;5135200;27;20504;-46
2023/08/04 00:11:11;;;;;;;4.13;1.00;;;;;;;22.27;41.57;98303.31;5135388;27;20015;-46
2023/08/04 00:13:36;;;;;;;5.82;1.10;;;;;;;22.17;41.89;98301.53;5134038;27;20023;-46
2023/08/04 00:16:07;;;;;;;5.80;2.03;;;;;;;22.20;42.21;98300.19;5135341;27;20019;-46
2023/08/04 00:18:33;;;;;;;5.25;0.95;;;;;;;22.26;41.77;98302.53;5134036;27;20488;-46
2023/08/04 00:20:59;;;;;;;6.97;1.15;;;;;;;22.31;42.08;98297.09;5135196;27;20559;-46
2023/08/04 00:23:25;;;;;;;6.93;1.17;;;;;;;22.31;41.63;98301.66;5133834;27;20031;-46
2023/08/04 00:25:51;;;;;;;5.47;0.93;;;;;;;22.30;41.86;98297.41;5135170;27;20076;-46
2023/08/04 00:28:16;;;;;;;5.13;1.52;;;;;;;22.23;42.07;98295.03;5135111;27;20084;-46
2023/08/04 00:30:42;;;;;;;4.93;0.95;;;;;;;22.08;42.54;98289.88;5134046;27;20023;-46
2023/08/04 00:33:08;;;;;;;7.65;1.40;;;;;;;21.91;42.69;98285.81;5133688;27;20114;-46
2023/08/04 00:35:33;;;;;;;7.30;1.40;;;;;;;21.81;43.76;98287.78;5134945;27;20024;-46
2023/08/04 00:37:59;;;;;;;6.13;1.10;;;;;;;21.67;45.07;98298.31;5134937;27;20039;-46
2023/08/04 00:40:25;;;;;;;4.95;1.30;;;;;;;21.30;47.18;98289.81;5116448;27;20425;-46
2023/08/04 00:42:51;;;;;;;10.52;1.40;;;;;;;21.00;47.35;98290.06;5133552;27;20106;-46
2023/08/04 00:45:16;;;;;;;7.78;1.52;;;;;;;20.95;47.84;98296.25;5133458;27;20015;-46
2023/08/04 00:47:42;;;;;;;9.65;2.00;;;;;;;21.24;47.75;98288.28;5134725;27;20058;-46
2023/08/04 00:50:09;;;;;;;4.55;1.25;;;;;;;21.62;47.09;98293.84;5133301;27;20031;-46
2023/08/04 00:52:37;;;;;;;6.00;1.38;;;;;;;22.06;46.02;98294.72;5133459;27;20396;-46
2023/08/04 00:55:04;;;;;;;3.28;0.82;;;;;;;22.27;45.07;98285.38;5133321;27;20023;-46
2023/08/04 00:57:30;;;;;;;4.05;1.00;;;;;;;22.09;44.94;98289.63;5133076;27;20381;-46
2023/08/04 00:59:56;;;;;;;4.15;1.10;;;;;;;21.94;45.02;98287.09;5133339;27;20053;-47
2023/08/04 01:02:22;;;;;;;6.90;1.30;;;;;;;21.79;45.41;98289.94;5133171;27;20023;-46
2023/08/04 01:04:48;;;;;;;6.35;1.25;;;;;;;21.71;45.86;98302.03;5133578;27;20106;-46
2023/08/04 01:07:24;;;;;;;3.63;1.00;;;;;;;21.68;46.43;98297.25;5134162;27;20111;-47
2023/08/04 01:10:00;;;;;;;9.88;2.45;;;;;;;21.64;46.02;98299.69;5134363;27;20019;-46
2023/08/04 01:12:44;;;;;;;5.20;1.58;;;;;;;21.72;46.53;98296.41;5132949;27;20087;-46
2023/08/04 01:15:10;;;;;;;12.13;1.20;;;;;;;21.86;45.84;98306.44;5134119;27;20019;-46
2023/08/04 01:17:36;;;;;;;7.05;0.80;;;;;;;21.82;45.51;98289.38;5132920;27;20015;-46
2023/08/04 01:20:05;;;;;;;4.65;1.40;;;;;;;21.82;45.21;98289.38;5134097;27;20500;-46
2023/08/04 01:22:33;;;;;;;4.93;1.10;;;;;;;21.83;45.50;98294.44;5132779;27;20026;-46
2023/08/04 01:24:59;;;;;;;5.00;0.80;;;;;;;21.88;45.52;98285.56;5134233;27;20084;-46
2023/08/04 01:27:43;;;;;;;6.97;1.05;;;;;;;21.82;45.85;98292.84;5132565;27;20035;-46
2023/08/04 01:30:18;;;;;;;6.63;1.05;;;;;;;21.73;46.34;98292.69;5132876;27;20023;-46
2023/08/04 01:32:44;;;;;;;3.83;0.88;;;;;;;21.68;46.53;98290.03;5132791;27;20128;-46
2023/08/04 01:35:09;;;;;;;10.18;1.70;;;;;;;21.53;47.15;98291.00;5132482;27;20035;-46
2023/08/04 01:37:35;;;;;;;8.05;1.58;;;;;;;21.68;47.58;98291.94;5132297;27;20507;-46
2023/08/04 01:40:01;;;;;;;8.50;1.10;;;;;;;21.74;47.01;98291.59;5132347;27;20027;-46
2023/08/04 01:42:26;;;;;;;7.85;1.10;;;;;;;21.62;47.42;98290.38;5133888;27;20058;-46
2023/08/04 01:44:52;;;;;;;7.63;1.23;;;;;;;21.53;47.00;98280.31;5133153;27;20576;-46
2023/08/04 01:47:18;;;;;;;5.47;1.08;;;;;;;21.59;47.35;98289.09;5133534;27;20054;-46
2023/08/04 01:49:43;;;;;;;2.15;0.68;;;;;;;21.70;46.71;98293.22;5133522;27;20109;-46
2023/08/04 01:52:09;;;;;;;8.93;1.20;;;;;;;21.75;47.02;98295.03;5133407;27;20106;-46
2023/08/04 01:54:35;;;;;;;16.98;5.90;;;;;;;21.81;47.31;98298.47;5133376;27;20023;-46
2023/08/04 01:57:00;;;;;;;4.70;1.45;;;;;;;22.11;47.76;98298.16;5132021;27;20029;-46
2023/08/04 01:59:26;;;;;;;5.28;1.13;;;;;;;22.53;46.25;98304.56;5131964;27;20041;-46
2023/08/04 02:01:52;;;;;;;4.45;1.30;;;;;;;22.70;45.39;98300.63;5132084;27;20034;-46
2023/08/04 02:04:17;;;;;;;8.07;1.67;;;;;;;22.60;45.25;98298.88;5133250;27;20028;-46
2023/08/04 02:06:43;;;;;;;2.28;1.10;;;;;;;22.58;45.00;98303.72;5133265;27;20019;-46
2023/08/04 02:09:09;;;;;;;6.85;1.20;;;;;;;22.47;45.13;98299.59;5132883;27;20466;-46
2023/08/04 02:11:34;;;;;;;1.58;0.70;;;;;;;22.24;45.12;98303.91;5133128;27;20015;-46
2023/08/04 02:14:00;;;;;;;1.83;0.52;;;;;;;22.00;45.87;98307.34;5133152;27;20026;-46
2023/08/04 02:16:26;;;;;;;2.83;1.20;;;;;;;21.86;46.19;98307.22;5131685;27;20392;-46
2023/08/04 02:19:00;;;;;;;6.03;1.33;;;;;;;21.89;46.52;98305.84;5132952;27;20023;-46
2023/08/04 02:21:26;;;;;;;9.75;3.92;;;;;;;22.14;46.61;98307.47;5133071;27;20027;-46
2023/08/04 02:23:51;;;;;;;10.35;2.15;;;;;;;22.50;46.20;98305.16;5132992;27;20031;-46
2023/08/04 02:26:17;;;;;;;6.80;1.70;;;;;;;22.89;45.37;98304.06;5132892;27;20079;-46
2023/08/04 02:28:42;;;;;;;7.68;1.00;;;;;;;23.13;44.73;98300.53;5131589;27;20126;-46
2023/08/04 02:31:08;;;;;;;6.22;1.77;;;;;;;23.10;44.61;98299.25;5132819;27;20514;-46
2023/08/04 02:33:34;;;;;;;5.07;0.82;;;;;;;23.38;44.08;98295.84;5132920;27;20027;-46
2023/08/04 02:36:00;;;;;;;4.97;1.13;;;;;;;23.55;43.29;98289.94;5132827;27;20022;-46
2023/08/04 02:38:26;;;;;;;2.28;0.57;;;;;;;23.46;42.84;98295.16;5132754;27;20133;-46
2023/08/04 02:40:53;;;;;;;3.22;1.05;;;;;;;23.07;42.96;98297.16;5132764;27;20024;-46
2023/08/04 02:43:19;;;;;;;6.32;1.58;;;;;;;22.77;43.96;98302.94;5132714;27;20027;-46
2023/08/04 02:45:50;;;;;;;5.80;1.10;;;;;;;22.94;44.83;98297.88;5133000;27;20072;-46
2023/08/04 02:48:15;;;;;;;2.45;0.73;;;;;;;22.91;44.23;98301.91;5131325;28;20028;-46
2023/08/04 02:50:41;;;;;;;1.88;0.77;;;;;;;22.65;44.29;98301.47;5131319;28;20019;-46
2023/08/04 02:53:07;;;;;;;11.43;1.73;;;;;;;22.46;45.00;98298.00;5132743;27;20027;-46
2023/08/04 02:55:32;;;;;;;7.88;1.50;;;;;;;22.75;45.06;98303.22;5133471;27;20385;-46
2023/08/04 02:57:58;;;;;;;6.00;1.33;;;;;;;23.02;44.74;98296.41;5135493;27;20031;-46
2023/08/04 03:00:25;;;;;;;1.50;0.57;;;;;;;22.99;43.84;98297.00;5136819;27;20102;-46
2023/08/04 03:02:51;;;;;;;8.20;1.77;;;;;;;22.68;44.63;98290.22;5135415;27;20015;-46
2023/08/04 03:05:17;;;;;;;8.15;0.88;;;;;;;22.55;44.77;98293.59;5136622;27;20022;-46
2023/08/04 03:07:43;;;;;;;3.78;1.20;;;;;;;22.15;45.52;98293.00;5118029;27;20047;-47
2023/08/04 03:10:08;;;;;;;12.48;1.92;;;;;;;21.96;46.54;98295.63;5136607;27;20020;-46
2023/08/04 03:12:34;;;;;;;5.80;1.30;;;;;;;22.29;46.43;98288.56;5135243;27;20035;-46
2023/08/04 03:15:00;;;;;;;11.88;1.77;;;;;;;22.62;46.24;98287.91;5136591;27;20027;-46
2023/08/04 03:17:25;;;;;;;6.00;1.00;;;;;;;22.74;45.66;98289.06;5135341;27;20031;-46
2023/08/04 03:19:54;;;;;;;14.02;1.90;;;;;;;22.69;45.83;98289.09;5136444;27;20024;-46
2023/08/04 03:22:23;;;;;;;2.45;0.80;;;;;;;22.75;45.37;98287.16;5135214;27;20031;-46
2023/08/04 03:24:48;;;;;;;5.65;1.42;;;;;;;22.67;45.19;98293.97;5135027;27;20031;-46
2023/08/04 03:27:14;;;;;;;3.28;0.80;;;;;;;22.64;45.40;98288.41;5136293;27;20124;-46
2023/08/04 03:29:39;;;;;;;4.53;1.05;;;;;;;22.36;45.59;98293.59;5136209;27;20545;-46
2023/08/04 03:32:05;;;;;;;7.43;1.17;;;;;;;22.33;46.34;98294.16;5136195;27;20027;-46
2023/08/04 03:34:31;;;;;;;12.68;2.00;;;;;;;22.63;45.70;98292.16;5135081;27;20027;-46
2023/08/04 03:36:57;;;;;;;8.63;1.70;;;;;;;22.94;45.19;98287.16;5134740;27;20118;-46
2023/08/04 03:39:22;;;;;;;5.45;1.10;;;;;;;23.08;44.59;98295.25;5135950;27;20019;-46
2023/08/04 03:41:48;;;;;;;6.40;1.23;;;;;;;23.08;43.86;98292.56;5136209;27;20027;-46
2023/08/04 03:44:14;;;;;;;11.63;1.33;;;;;;;23.06;44.31;98290.22;5134625;27;20027;-46
2023/08/04 03:46:39;;;;;;;10.43;1.77;;;;;;;23.12;44.20;98301.66;5134567;27;20075;-46
2023/08/04 03:49:04;;;;;;;6.80;1.50;;;;;;;;;;5134560;27;20029;-46
2023/08/04 03:51:30;;;;;;;6.80;1.20;;;;;;;23.13;43.79;98298.66;5134499;27;20424;-46
2023/08/04 03:53:56;;;;;;;8.20;1.80;;;;;;;23.21;43.96;98291.84;5135766;27;20022;-46
2023/08/04 03:56:21;;;;;;;23.98;5.47;;;;;;;23.32;43.39;98297.81;5134379;27;20035;-46
2023/08/04 03:58:47;;;;;;;20.80;4.03;;;;;;;23.44;43.35;98297.34;5135662;27;20026;-46
2023/08/04 04:01:13;;;;;;;24.17;3.35;;;;;;;23.58;42.73;98298.16;5135540;27;20027;-46
2023/08/04 04:03:39;;;;;;;13.68;2.80;;;;;;;23.64;42.93;98297.00;5135594;27;20019;-47
2023/08/04 04:06:04;;;;;;;17.00;1.90;;;;;;;23.64;42.70;98302.38;5133898;27;20034;-46
2023/08/04 04:08:30;;;;;;;7.97;2.08;;;;;;;23.59;42.76;98293.63;5133888;27;20462;-46
2023/08/04 04:10:55;;;;;;;6.30;1.02;;;;;;;23.41;42.53;98295.28;5134084;27;20027;-46
2023/08/04 04:13:22;;;;;;;8.82;1.80;;;;;;;23.15;43.34;98297.59;5134105;27;20031;-46
2023/08/04 04:15:48;;;;;;;8.20;1.17;;;;;;;23.04;43.49;98297.75;5134074;27;20023;-47
2023/08/04 04:18:14;;;;;;;6.70;1.40;;;;;;;22.80;43.67;98300.47;5134221;27;20084;-46
2023/08/04 04:20:39;;;;;;;4.80;0.70;;;;;;;22.58;44.02;98302.91;5133940;27;20019;-46
2023/08/04 04:23:05;;;;;;;3.88;1.00;;;;;;;22.31;44.12;98301.66;5135467;27;20037;-46
2023/08/04 04:25:30;;;;;;;5.65;1.20;;;;;;;22.06;44.66;98300.88;5135208;27;20515;-46
2023/08/04 04:27:56;;;;;;;7.22;1.13;;;;;;;21.82;44.99;98305.41;5135374;27;20039;-46
2023/08/04 04:30:22;;;;;;;10.43;1.40;;;;;;;21.69;45.77;98302.34;5135112;27;20027;-46
2023/08/04 04:32:47;;;;;;;9.60;1.63;;;;;;;21.66;45.78;98294.88;5133738;27;20024;-46
2023/08/04 04:35:13;;;;;;;3.40;1.10;;;;;;;21.64;45.89;98296.25;5133914;27;20423;-46
2023/08/04 04:37:39;;;;;;;8.00;1.13;;;;;;;21.50;46.00;98293.44;5133514;27;20023;-46
2023/08/04 04:40:05;;;;;;;11.55;1.92;;;;;;;21.28;46.56;98297.31;5133551;27;20404;-46
2023/08/04 04:42:34;;;;;;;10.73;2.00;;;;;;;21.37;47.30;98296.72;5134811;27;20031;-46
2023/08/04 04:45:00;;;;;;;6.63;1.48;;;;;;;21.65;46.69;98298.63;5133416;27;20023;-46
2023/08/04 04:47:27;;;;;;;14.30;1.65;;;;;;;22.01;46.32;98292.09;5134742;27;20442;-46
2023/08/04 04:49:52;;;;;;;7.65;1.60;;;;;;;22.30;45.67;98295.53;5134701;27;20019;-46
2023/08/04 04:52:36;;;;;;;9.40;1.48;;;;;;;22.38;44.96;98294.09;5133328;27;20463;-46
2023/08/04 04:55:02;;;;;;;10.68;1.50;;;;;;;22.24;44.64;98299.34;5134601;27;20042;-46
2023/08/04 04:57:29;;;;;;;18.58;1.67;;;;;;;22.09;45.34;98300.31;5134443;27;20019;-46
2023/08/04 04:59:55;;;;;;;5.47;0.98;;;;;;;22.10;45.12;98290.41;5134492;27;20053;-46
2023/08/04 05:02:21;;;;;;;4.80;1.30;;;;;;;22.08;44.74;98301.38;5134475;27;20094;-46
2023/08/04 05:04:47;;;;;;;9.65;1.48;;;;;;;22.04;45.06;98297.69;5134436;27;20046;-46
2023/08/04 05:07:13;;;;;;;12.00;1.83;;;;;;;22.10;44.95;98303.75;5132654;27;20050;-47
2023/08/04 05:09:39;;;;;;;11.38;1.60;;;;;;;22.11;44.72;98298.16;5134299;27;20027;-46
2023/08/04 05:12:05;;;;;;;25.38;2.38;;;;;;;22.09;44.82;98294.97;5134443;27;20397;-46
2023/08/04 05:14:31;;;;;;;35.00;3.70;;;;;;;22.18;44.99;98299.66;5132858;27;20026;-47
2023/08/04 05:16:57;;;;;;;41.70;4.13;;;;;;;22.39;44.82;98303.69;5134128;27;20027;-46
2023/08/04 05:19:22;;;;;;;26.67;3.00;;;;;;;22.76;43.66;98301.31;5133290;27;20015;-46
2023/08/04 05:21:48;;;;;;;23.95;2.92;;;;;;;23.13;43.32;98311.25;5132835;27;20031;-46
2023/08/04 05:24:15;;;;;;;4.57;1.60;;;;;;;23.29;42.81;98296.53;5132718;27;20507;-46
2023/08/04 05:26:41;;;;;;;9.02;1.25;;;;;;;22.96;43.30;98311.75;5134012;27;20111;-46
2023/08/04 05:29:06;;;;;;;9.05;2.05;;;;;;;22.57;44.18;98315.50;5132553;27;20464;-46
2023/08/04 05:31:32;;;;;;;9.75;1.27;;;;;;;22.37;44.56;98326.47;5133889;27;20023;-46
2023/08/04 05:34:00;;;;;;;5.15;1.08;;;;;;;22.16;48.48;98325.88;5132498;27;20519;-47
2023/08/04 05:36:26;;;;;;;29.92;18.85;;;;;;;22.08;47.65;98319.28;5133739;27;20518;-46
2023/08/04 05:38:52;;;;;;;21.05;1.85;;;;;;;22.00;47.03;98330.59;5133575;27;20114;-46
2023/08/04 05:41:18;;;;;;;8.25;1.02;;;;;;;21.83;47.10;98323.84;5132369;27;20083;-46
2023/08/04 05:43:43;;;;;;;9.13;1.70;;;;;;;21.66;47.55;98337.59;5132341;27;20027;-46
2023/08/04 05:46:12;;;;;;;18.05;1.67;;;;;;;21.55;48.14;98336.13;5133562;27;20027;-47
2023/08/04 05:48:38;;;;;;;13.07;1.20;;;;;;;21.43;48.83;98339.16;5133543;27;20396;-47
2023/08/04 05:51:05;;;;;;;9.10;1.40;;;;;;;21.35;49.48;98340.50;5133501;27;20019;-46
2023/08/04 05:53:32;;;;;;;4.38;1.13;;;;;;;21.41;49.56;98341.28;5133539;27;20111;-46
2023/08/04 05:55:58;;;;;;;7.72;1.10;;;;;;;21.58;49.71;98346.22;5133472;27;20019;-46
2023/08/04 05:58:26;;;;;;;9.10;1.27;;;;;;;21.56;50.54;98353.72;5133375;27;20033;-46
2023/08/04 06:00:52;;;;;;;10.02;2.47;;;;;;;21.60;51.75;98352.09;5132174;27;20022;-46
2023/08/04 06:03:17;;;;;;;6.80;1.27;;;;;;;21.39;52.86;98361.31;5133358;27;20395;-46
2023/08/04 06:05:43;;;;;;;14.52;1.58;;;;;;;20.79;56.21;98359.56;5133326;27;20399;-46
2023/08/04 06:08:10;;;;;;;11.68;1.40;;;;;;;20.32;58.95;98371.47;5132866;27;20070;-46
2023/08/04 06:10:37;;;;;;;13.52;2.38;;;;;;;19.75;61.13;98374.25;5133104;27;20015;-45
2023/08/04 06:13:03;;;;;;;5.50;1.67;;;;;;;19.14;64.02;98376.88;5133112;27;20417;-45
2023/08/04 06:15:28;;;;;;;13.55;2.50;;;;;;;18.53;67.55;98380.91;5133031;27;20015;-45
2023/08/04 06:17:54;;;;;;;13.63;1.80;;;;;;;18.35;72.20;98384.00;5133009;27;20127;-44
2023/08/04 06:20:20;;;;;;;21.20;2.97;;;;;;;18.38;76.24;98382.69;5133017;27;20396;-44
2023/08/04 06:22:48;;;;;;;12.27;2.28;;;;;;;18.27;77.90;98380.00;5131671;27;20545;-44
2023/08/04 06:25:14;;;;;;;18.33;2.78;;;;;;;18.11;80.15;98388.91;5133031;27;20055;-45
2023/08/04 06:27:41;;;;;;;8.68;2.00;;;;;;;18.11;82.37;98378.28;5132964;27;20051;-45
2023/08/04 06:30:07;;;;;;;7.05;1.70;;;;;;;18.16;82.19;98389.75;5132747;27;20045;-44
2023/08/04 06:32:33;;;;;;;8.73;1.30;;;;;;;18.11;81.39;98389.72;5131754;27;20048;-44
2023/08/04 06:34:59;;;;;;;9.55;1.75;;;;;;;18.19;82.67;98392.94;5132881;27;20091;-45
2023/08/04 06:37:25;;;;;;;10.00;1.60;;;;;;;18.23;83.46;98392.19;5132844;27;20496;-45
2023/08/04 06:39:51;;;;;;;17.00;2.80;;;;;;;18.16;83.94;98387.09;5132837;27;20015;-44
2023/08/04 06:42:17;;;;;;;16.85;1.95;;;;;;;18.14;85.70;98389.19;5132768;27;20051;-44
2023/08/04 06:44:43;;;;;;;1999.90;999.90;;;;;;;18.10;86.46;98395.28;5131378;28;20027;-44
2023/08/04 06:47:09;;;;;;;108.40;98.13;;;;;;;18.03;87.03;98395.53;5131690;28;20068;-45
2023/08/04 06:49:35;;;;;;;32.63;10.05;;;;;;;17.90;87.76;98385.34;5132695;28;20534;-44
2023/08/04 06:52:01;;;;;;;14.18;2.53;;;;;;;17.89;89.06;98389.06;5132563;27;20136;-44
2023/08/04 06:54:27;;;;;;;7.38;2.15;;;;;;;18.03;89.84;98398.19;5114257;28;20488;-44
2023/08/04 06:56:53;;;;;;;13.95;2.47;;;;;;;18.23;90.01;98388.72;5131255;28;20030;-45
2023/08/04 06:59:18;;;;;;;5.18;1.27;;;;;;;18.28;88.15;98394.06;5132568;27;20034;-45
2023/08/04 07:01:44;;;;;;;9.07;1.60;;;;;;;18.35;88.04;98394.63;5132523;27;20406;-44
2023/08/04 07:04:10;;;;;;;4.25;1.20;;;;;;;18.53;88.05;98394.19;5132545;27;20023;-44
2023/08/04 07:06:36;;;;;;;15.73;1.95;;;;;;;18.69;87.95;98399.56;5132481;28;20050;-45
2023/08/04 07:09:02;;;;;;;3.85;1.02;;;;;;;18.76;86.83;98400.13;5130896;28;20527;-44
2023/08/04 07:11:28;;;;;;;4.68;1.35;;;;;;;18.71;85.16;98397.44;5132462;27;20080;-45
2023/08/04 07:13:54;;;;;;;6.18;1.27;;;;;;;18.73;84.38;98400.63;5132484;27;20027;-45
2023/08/04 07:16:21;;;;;;;6.53;1.33;;;;;;;18.76;84.42;98400.13;5132715;27;20134;-45
2023/08/04 07:18:46;;;;;;;10.27;1.65;;;;;;;18.92;85.56;98401.00;5132320;27;20393;-45
2023/08/04 07:21:13;;;;;;;5.53;1.23;;;;;;;19.11;85.61;98401.31;5131077;28;20039;-45
2023/08/04 07:23:41;;;;;;;17.40;2.20;;;;;;;19.31;85.77;98401.34;5131082;28;20084;-45
2023/08/04 07:26:07;;;;;;;6.90;1.75;;;;;;;19.51;83.57;98403.22;5132321;27;20019;-45
2023/08/04 07:28:34;;;;;;;41.03;32.22;;;;;;;19.63;83.22;98400.31;5132318;27;20030;-46
2023/08/04 07:31:07;;;;;;;18.42;11.18;;;;;;;19.76;82.85;98404.34;5132255;27;20046;-46
2023/08/04 07:33:33;;;;;;;13.07;5.13;;;;;;;19.97;82.38;98397.13;5130986;28;20031;-46
2023/08/04 07:35:59;;;;;;;9.50;2.33;;;;;;;20.14;82.77;98399.47;5131128;28;20110;-46
2023/08/04 07:38:29;;;;;;;7.00;1.92;;;;;;;20.47;83.10;98399.94;5132160;27;20028;-46
2023/08/04 07:40:56;;;;;;;5.78;1.20;;;;;;;20.75;79.88;98396.66;5130806;27;20023;-46
2023/08/04 07:43:23;;;;;;;12.73;1.70;;;;;;;20.78;78.77;98400.63;5134779;27;20451;-46
2023/08/04 07:45:49;;;;;;;9.07;1.63;;;;;;;20.80;79.53;98392.38;5135902;27;20035;-46
2023/08/04 07:48:15;;;;;;;13.95;2.30;;;;;;;20.70;80.24;98396.66;5134596;27;20039;-45
2023/08/04 07:50:45;;;;;;;15.05;2.30;;;;;;;20.58;81.26;98401.47;5135827;27;20027;-45
2023/08/04 07:53:11;;;;;;;6.75;1.50;;;;;;;20.41;82.92;98398.38;5134580;27;20405;-45
2023/08/04 07:55:36;;;;;;;18.20;2.35;;;;;;;20.21;83.17;98401.88;5135806;27;20031;-45
2023/08/04 07:58:09;;;;;;;20.60;2.30;;;;;;;20.05;83.78;98398.44;5135676;27;20031;-45
2023/08/04 08:00:36;;;;;;;12.60;1.60;;;;;;;19.93;84.72;98401.38;5135680;27;20051;-45
2023/08/04 08:03:02;;;;;;;19.73;2.88;;;;;;;19.78;84.90;98404.88;5135621;27;20088;-44
2023/08/04 08:05:28;;;;;;;9.30;1.70;;;;;;;19.79;85.70;98401.13;5135601;27;20019;-45
2023/08/04 08:07:54;;;;;;;29.05;18.67;;;;;;;19.64;85.94;98409.91;5135322;27;20058;-44
2023/08/04 08:10:21;;;;;;;9.75;2.67;;;;;;;19.38;86.95;98416.25;5135727;27;20447;-45
2023/08/04 08:12:47;;;;;;;22.85;12.75;;;;;;;19.05;88.53;98408.47;5134140;27;20031;-45
2023/08/04 08:15:13;;;;;;;8.48;2.88;;;;;;;18.74;90.34;98413.69;5135656;27;20408;-45
2023/08/04 08:17:38;;;;;;;13.02;5.80;;;;;;;18.55;91.14;98413.34;5135294;27;20080;-45
2023/08/04 08:20:07;;;;;;;6.93;1.98;;;;;;;18.39;92.43;98413.50;5134004;27;20023;-45
2023/08/04 08:22:33;;;;;;;12.30;3.88;;;;;;;18.37;94.68;98419.06;5135319;27;20023;-44
2023/08/04 08:24:59;;;;;;;8.68;3.38;;;;;;;18.33;95.45;98424.13;5135504;27;20058;-45
2023/08/04 08:27:24;;;;;;;15.77;3.40;;;;;;;18.27;96.13;98425.16;5135175;27;20051;-44
2023/08/04 08:29:53;;;;;;;7.93;2.17;;;;;;;18.43;98.20;98419.91;5135185;27;20529;-45
2023/08/04 08:32:20;;;;;;;20.60;3.20;;;;;;;18.73;99.41;98428.03;5133736;27;20023;-44
2023/08/04 08:34:46;;;;;;;9.85;1.50;;;;;;;19.12;99.21;98427.66;5135029;27;20023;-44
2023/08/04 08:37:11;;;;;;;14.20;2.40;;;;;;;19.38;98.11;98424.25;5134910;27;20538;-44
2023/08/04 08:39:37;;;;;;;14.73;2.50;;;;;;;19.61;97.42;98433.59;5134833;27;20019;-44
2023/08/04 08:42:03;;;;;;;12.63;4.88;;;;;;;19.68;95.28;98426.94;5134880;27;20471;-44
2023/08/04 08:44:29;;;;;;;16.25;3.08;;;;;;;19.72;94.89;98428.03;5134813;27;20027;-45
2023/08/04 08:46:54;;;;;;;19.90;4.95;;;;;;;19.88;95.73;98431.50;5134770;27;20076;-45
2023/08/04 08:49:27;;;;;;;18.08;3.10;;;;;;;20.22;95.57;98436.25;5133443;27;20027;-44
2023/08/04 08:51:56;;;;;;;19.42;3.38;;;;;;;20.48;94.27;98442.34;5133342;27;20019;-44
2023/08/04 08:54:22;;;;;;;12.32;3.35;;;;;;;20.58;92.59;98433.47;5133419;27;20034;-44
2023/08/04 08:56:52;;;;;;;20.02;3.67;;;;;;;20.61;90.45;98440.19;5134561;27;20023;-44
2023/08/04 08:59:18;;;;;;;11.82;3.10;;;;;;;20.58;89.13;98448.69;5133461;27;20015;-44
2023/08/04 09:01:44;;;;;;;14.35;2.38;;;;;;;20.44;87.60;98446.59;5116346;27;20026;-45
2023/08/04 09:04:10;;;;;;;15.25;2.47;;;;;;;20.38;86.86;98455.66;5133248;27;20023;-45
2023/08/04 09:06:35;;;;;;;8.88;1.73;;;;;;;20.39;86.03;98446.59;5115941;27;20027;-45
2023/08/04 09:09:02;;;;;;;11.88;2.40;;;;;;;20.45;86.11;98456.19;5134012;27;20122;-45
2023/08/04 09:11:29;;;;;;;9.38;1.60;;;;;;;20.65;86.38;98454.56;5132954;27;20042;-45
2023/08/04 09:13:55;;;;;;;10.32;1.40;;;;;;;20.79;83.62;98455.59;5134282;27;20023;-45
2023/08/04 09:16:36;;;;;;;6.35;1.38;;;;;;;21.06;83.01;98454.41;5132882;27;20030;-46
2023/08/04 09:19:07;;;;;;;6.47;1.20;;;;;;;21.40;82.07;98446.47;5134084;27;20508;-46
2023/08/04 09:21:34;;;;;;;10.77;1.88;;;;;;;21.81;82.53;98448.06;5134201;27;20175;-45
2023/08/04 09:24:02;;;;;;;9.40;2.03;;;;;;;22.07;80.76;98449.47;5134311;27;20053;-45
2023/08/04 09:26:44;;;;;;;19.10;2.47;;;;;;;22.01;80.63;98455.91;5133962;27;20026;-45
2023/08/04 09:29:12;;;;;;;56.63;4.80;;;;;;;22.10;82.70;98456.91;5133946;27;20495;-45
2023/08/04 09:31:42;;;;;;;51.25;5.20;;;;;;;22.29;81.06;98456.22;5132436;27;20023;-44
2023/08/04 09:34:11;;;;;;;59.05;4.82;;;;;;;22.19;79.82;98465.09;5133855;27;20019;-45
2023/08/04 09:36:47;;;;;;;36.40;3.83;;;;;;;22.13;82.12;98477.72;5133779;27;20023;-45
2023/08/04 09:39:14;;;;;;;25.45;3.65;;;;;;;22.06;82.97;98479.91;5133750;27;20103;-45
2023/08/04 09:41:45;;;;;;;23.05;3.60;;;;;;;22.01;81.48;98484.50;5133657;27;20045;-45
2023/08/04 09:44:11;;;;;;;31.38;3.90;;;;;;;21.63;82.56;98489.59;5132356;27;20366;-45
2023/08/04 09:46:50;;;;;;;32.53;3.47;;;;;;;21.11;84.56;98494.41;5133617;27;20039;-45
2023/08/04 09:49:16;;;;;;;12.30;2.10;;;;;;;20.57;85.25;98498.56;5133656;27;20029;-45
2023/08/04 09:51:43;;;;;;;15.60;2.53;;;;;;;20.29;88.87;98497.28;5133481;27;20041;-44
2023/08/04 09:54:09;;;;;;;18.73;3.10;;;;;;;20.13;89.19;98502.59;5133739;27;20496;-45
2023/08/04 09:56:34;;;;;;;19.38;2.33;;;;;;;19.82;89.61;98511.63;5133423;27;20034;-45
2023/08/04 09:59:01;;;;;;;27.33;2.92;;;;;;;19.75;92.47;98510.03;5133375;27;20076;-45
2023/08/04 10:01:28;;;;;;;20.65;3.47;;;;;;;19.90;94.56;98503.94;5133385;27;20019;-44
2023/08/04 10:03:57;;;;;;;24.75;3.58;;;;;;;19.98;96.21;98510.59;5131802;27;20028;-45
2023/08/04 10:06:24;;;;;;;16.73;2.40;;;;;;;19.77;96.71;98515.09;5133389;27;20057;-45
2023/08/04 10:08:53;;;;;;;12.07;2.15;;;;;;;19.74;99.46;98507.66;5132964;27;20039;-45
2023/08/04 10:11:22;;;;;;;11.05;2.10;;;;;;;19.73;100.00;98512.16;5132169;27;20378;-45
2023/08/04 10:13:53;;;;;;;11.82;1.83;;;;;;;19.67;100.00;98507.06;5133208;27;20034;-45
2023/08/04 10:16:35;;;;;;;19.25;2.92;;;;;;;19.68;100.00;98520.13;5133123;27;20098;-45
2023/08/04 10:19:03;;;;;;;20.98;2.72;;;;;;;19.72;100.00;98518.56;5131685;27;20031;-45
2023/08/04 10:21:34;;;;;;;17.02;3.53;;;;;;;19.79;100.00;98512.19;5132983;27;20023;-45
2023/08/04 10:24:02;;;;;;;23.00;3.60;;;;;;;19.80;100.00;98514.59;5133046;27;20056;-45
2023/08/04 10:26:31;;;;;;;16.60;2.92;;;;;;;19.80;100.00;98519.09;5132904;27;20534;-45
2023/08/04 10:29:03;;;;;;;16.92;3.05;;;;;;;19.80;100.00;98519.09;5114538;28;20532;-45
2023/08/04 10:31:51;;;;;;;17.50;3.30;;;;;;;19.74;100.00;98507.66;5131733;27;20011;-45
2023/08/04 10:34:28;;;;;;;12.95;2.97;;;;;;;19.82;100.00;98517.78;5133110;27;20492;-45
2023/08/04 10:37:11;;;;;;;10.63;2.45;;;;;;;19.93;100.00;98511.38;5131598;27;20081;-45
2023/08/04 10:39:45;;;;;;;8.38;2.05;;;;;;;19.95;100.00;98500.47;5132793;27;20031;-45
2023/08/04 10:42:31;;;;;;;12.63;2.42;;;;;;;19.96;100.00;98510.06;5132876;27;20023;-45
2023/08/04 10:45:05;;;;;;;19.05;2.97;;;;;;;19.98;100.00;98499.13;5133045;27;20486;-44
2023/08/04 10:47:39;;;;;;;17.83;5.22;;;;;;;19.98;100.00;98510.59;5132708;27;20030;-44
2023/08/04 10:50:06;;;;;;;9.95;4.03;;;;;;;20.25;100.00;98501.53;5132788;27;20556;-45
2023/08/04 10:52:33;;;;;;;11.00;2.45;;;;;;;20.53;100.00;98508.94;5131420;28;20031;-45
2023/08/04 10:55:00;;;;;;;10.40;2.38;;;;;;;20.63;100.00;98502.84;5131405;28;20030;-44
2023/08/04 10:57:30;;;;;;;19.02;3.42;;;;;;;20.45;100.00;98512.16;5132692;27;20094;-45
2023/08/04 10:59:56;;;;;;;12.57;3.28;;;;;;;20.45;100.00;98512.16;5132680;27;20441;-45
2023/08/04 11:02:23;;;;;;;135.18;123.82;;;;;;;20.32;100.00;98513.53;5132516;27;20027;-45
2023/08/04 11:04:52;;;;;;;29.00;7.43;;;;;;;20.15;100.00;98527.13;5132573;27;20501;-46
2023/08/04 11:07:19;;;;;;;6.95;1.90;;;;;;;20.01;100.00;98523.38;5130897;28;20027;-47
2023/08/04 11:09:46;;;;;;;6.90;1.95;;;;;;;19.77;100.00;98524.97;5132520;27;20031;-46
2023/08/04 11:12:13;;;;;;;9.60;2.28;;;;;;;19.84;100.00;98526.31;5131189;28;20034;-46
2023/08/04 11:14:39;;;;;;;11.18;2.03;;;;;;;19.94;100.00;98526.31;5131234;28;20027;-46
2023/08/04 11:17:12;;;;;;;14.30;6.55;;;;;;;20.40;100.00;98520.16;5134067;27;20027;-46
2023/08/04 11:19:38;;;;;;;6.38;2.25;;;;;;;20.72;100.00;98522.53;5136400;27;20476;-46
2023/08/04 11:22:08;;;;;;;5.18;1.40;;;;;;;21.14;100.00;98521.31;5118037;27;20023;-46
2023/08/04 11:24:34;;;;;;;14.77;3.22;;;;;;;21.56;100.00;98515.81;5136388;27;20580;-46
2023/08/04 11:26:59;;;;;;;9.02;2.50;;;;;;;21.86;98.70;98520.16;5118038;27;20054;-46
2023/08/04 11:29:25;;;;;;;9.20;3.17;;;;;;;22.08;96.89;98517.84;5135041;27;20160;-46